Portada
METAR-TAF:

METAR-TAF

Aeroports :

Aeroport Internacional de Xangai-Pudong

Xangai-Pudong, Xina

latitud: 31-07N, longitud: 121-46E, altitud: 4 m

Observació

L'informe es va fer fa 26 minuts, a les 02:00 UTC
Vent 6 kt del Sud-Oest, variant entre Sud i Oest
Temperatura 32°C
Humitat 49%
Pressió 1012 hPa
Visibilitat 10 km o més
sense núvols per sota de 1500 mi sense presència de cumulonimbus.

METAR: ZSPD 220200Z 23003MPS 190V270 CAVOK 32/20 Q1012 NOSIG

Hora: 10:26 (02:26 UTC)

Pronòstic

L'informe es va fer fa 5 hores i 22 minuts, a les 21:04 UTC
Pronòstic vàlid del 22 a les 00 UTC al 22 a les 24 UTC
Vent 8 kt del Sud-Oest
Visibilitat: 6000 m
Cel ennuvolat a una alçada de 2000 ft

TAF: ZSPD 212104Z 2200/2224 22004MPS 6000 BKN020 TX33/2206Z TN23/2221Z

Observacions i pronòstics meteorològics de més de 4000 aeroports (METAR i TAF).

Les estacions disponibles són els punts grocs i vermells al mapa.

Posi el ratolí al punt desitjat per veure el nom de l'estació.

Feu clic per veure les observacions i els pronòstics meteorològics.

Per canviar el mapa: feu clic els botons verds amb una creu de color negre per apropar; al botó verd amb un guió per allunyar la imatge; o en les fletxes verdes per a mapes adjacents.


METAR-TAF: